METAR Data
IDs: Format: Raw Decoded Include TAF

Data at: 1600 UTC 24 Aug 2019

PAOH 241556Z AUTO 00000KT 2 1/2SM BR BKN005 BKN040 OVC055 11/11 A2963 RMK AO2 RAE55 SLP034 P0001 T01110111
PAOH 241546Z AUTO 00000KT 10SM -RA OVC005 11/11 A2963 RMK AO2 CIG 005V008 P0001
PAOH 241515Z AUTO 00000KT 10SM -RA OVC008 11/11 A2962 RMK AO2 CIG 005V010 P0001
PAOH 241456Z AUTO 00000KT 10SM -RA BKN005 BKN009 OVC013 11/11 A2962 RMK AO2 CIG 002V007 SLP029 P0001 60004 T01110111 52004
PAOH 241358Z AUTO 00000KT 2 1/2SM -RA BR FEW009 BKN019 OVC043 11/11 A2960 RMK AO2 P0000
PAOH 241356Z AUTO 00000KT 3SM -RA BR BKN019 OVC043 11/11 A2960 RMK AO2 SLP025 P0002 T01060106
PAOH 241256Z AUTO 00000KT 10SM -RA FEW009 BKN050 OVC070 11/11 A2959 RMK AO2 SLP021 P0001 T01060106
PAOH 241249Z AUTO 00000KT 10SM -RA SCT009 BKN050 OVC070 11/11 A2959 RMK AO2 P0001
PAOH 240933Z AUTO 00000KT 10SM OVC009 11/11 A2958 RMK AO2 RAE24 CIG 008V013 P0000
PAOH 240856Z AUTO 00000KT 10SM -RA BKN013 OVC020 11/11 A2957 RMK AO2 SLP013 P0001 60001 T01110106 51007
PAOH 240843Z AUTO 00000KT 10SM -RA SCT010 BKN014 OVC020 11/11 A2957 RMK AO2 P0000
PAOH 240834Z AUTO 00000KT 10SM -RA SCT012 OVC020 11/11 A2957 RMK AO2 P0000
PAOH 240827Z AUTO 00000KT 10SM -RA BKN010 BKN015 OVC022 11/11 A2957 RMK AO2 P0000
PAOH 240805Z AUTO 00000KT 10SM -RA SCT011 BKN017 OVC022 11/11 A2956 RMK AO2 P0000
PAOH 240756Z AUTO 00000KT 10SM -RA BKN014 OVC022 11/11 A2957 RMK AO2 RAB25 SLP012 P0000 T01110106 401170100
PAOH 240739Z AUTO 09004KT 10SM -RA OVC015 11/11 A2956 RMK AO2 RAB25 P0000
PAOH 240705Z AUTO 00000KT 10SM BKN012 OVC020 11/11 A2956 RMK AO2
PAOH 240656Z AUTO 00000KT 10SM SCT014 OVC020 11/11 A2956 RMK AO2 RAE47 SLP010 P0000 T01060106
PAOH 240609Z AUTO 09003KT 10SM -RA SCT014 OVC020 11/11 A2955 RMK AO2 P0000
PAOH 240556Z AUTO 10003KT 10SM -RA BKN014 OVC020 11/11 A2955 RMK AO2 SLP007 P0001 60005 T01110106 10117 20106 51010
PAOH 240410Z AUTO 00000KT 10SM -RA OVC014 11/11 A2953 RMK AO2 P0000
PAOH 240356Z AUTO 00000KT 10SM -RA OVC016 11/11 A2953 RMK AO2 SLP001 P0003 T01110106
PAOH 240331Z AUTO 09003KT 10SM -RA BKN016 OVC025 11/11 A2953 RMK AO2 P0002
PAOH 240319Z AUTO 00000KT 10SM -RA BKN014 OVC025 11/11 A2952 RMK AO2 P0002
PAOH 240256Z AUTO 09003KT 8SM -RA SCT014 OVC025 11/11 A2952 RMK AO2 RAB12 SLP996 P0001 60001 T01110106 51008
PAOH 240156Z AUTO 08003KT 10SM OVC012 11/11 A2951 RMK AO2 RAE02 SLP994 P0000 T01110106
PAOH 240112Z AUTO 07003KT 6SM BR BKN010 OVC013 11/11 A2951 RMK AO2 RAE02 CIG 007V012 P0000
PAOH 240056Z AUTO 08004KT 8SM -RA OVC008 11/11 A2951 RMK AO2 RAE24B48 CIG 007V013 SLP991 P0000 T01110106
PAOH 240012Z AUTO 06003KT 5SM -RA BR OVC008 11/11 A2950 RMK AO2 CIG 006V012 P0000
PAOH 232356Z AUTO 00000KT 5SM -RA BR OVC010 11/11 A2950 RMK AO2 CIG 007V013 SLP988 P0001 60002 T01110106 10117 20106 53003
PAOH 232256Z AUTO 06004KT 6SM -RA BR SCT008 BKN012 OVC025 11/10 A2949 RMK AO2 SLP986 P0001 T01110100
PAOH 232247Z AUTO 08004KT 6SM -RA BR BKN008 BKN012 OVC025 11/11 A2949 RMK AO2 P0001
PAOH 232237Z AUTO 08004KT 5SM -RA BR BKN010 OVC025 11/11 A2949 RMK AO2 CIG 007V014 P0001
PAOH 232204Z AUTO 07005KT 9SM -RA BKN008 OVC025 11/11 A2948 RMK AO2 CIG 007V013 P0001
PAOH 232156Z AUTO 08004KT 7SM -RA BKN010 OVC025 11/10 A2949 RMK AO2 CIG 007V013 SLP985 P0000 T01110100
PAOH 232118Z AUTO 07006KT 10SM -RA FEW009 OVC025 12/11 A2949 RMK AO2 P0000
PAOH 232056Z AUTO 10006KT 10SM -RA BKN009 OVC025 11/10 A2949 RMK AO2 CIG 007V012 SLP985 P0000 60000 T01110100 58003
PAOH 231956Z AUTO 09006KT 9SM -RA OVC007 11/10 A2949 RMK AO2 SLP987 P0000 T01060100
PAOH 231856Z AUTO 06007KT 7SM -RA BKN007 BKN017 OVC023 11/10 A2950 RMK AO2 CIG 005V012 SLP988 P0000 T01110100
PAOH 231822Z AUTO 09008KT 5SM -RA BR BKN009 BKN017 OVC024 11/10 A2950 RMK AO2 CIG 005V013 P0000
PAOH 231756Z AUTO 08006KT 3SM -RA BR FEW009 OVC017 11/09 A2950 RMK AO2 SLP988 P0000 60018 T01060094 10106 20100 57002
PAOH 231710Z AUTO 08007KT 3SM -RA BR FEW008 OVC015 11/10 A2950 RMK AO2 P0000
PAOH 231645Z AUTO 09007KT 5SM -RA BR BKN011 OVC017 11/09 A2950 RMK AO2 P0001
PAOH 231624Z AUTO 08006KT 4SM -RA BR BKN009 OVC014 10/09 A2950 RMK AO2 CIG 007V011 P0000
PAOH 231618Z AUTO 10006KT 4SM -RA BR OVC012 11/10 A2950 RMK AO2 P0000
PAOH 231603Z AUTO 09007KT 3SM -RA BR FEW009 OVC016 10/09 A2950 RMK AO2 P0000
PAOH 231556Z AUTO 10008KT 4SM -RA BR OVC016 10/09 A2950 RMK AO2 SLP990 P0002 T01000094
PAOH 231522Z AUTO 08006KT 5SM -RA BR OVC016 10/09 A2950 RMK AO2 P0001
PAOH 231435Z AUTO 09008KT 4SM -RA BR BKN014 OVC022 10/09 A2950 RMK AO2 P0002
PAOH 231425Z AUTO 07008KT 2 1/2SM -RA BR BKN014 OVC022 10/09 A2950 RMK AO2 P0001
PAOH 231356Z AUTO 08007KT 3SM -RA BR BKN013 OVC020 10/09 A2950 RMK AO2 SLP989 P0005 T01000094
PAOH 231345Z AUTO 07007KT 4SM -RA BR BKN009 BKN016 OVC022 10/09 A2950 RMK AO2 CIG 008V014 P0004
PAOH 231338Z AUTO 08009KT 6SM -RA BR SCT009 BKN016 OVC022 10/09 A2950 RMK AO2 P0004
PAOH 231256Z AUTO 08006KT 5SM RA BR BKN009 OVC022 10/09 A2949 RMK AO2 CIG 008V014 SLP987 P0008 T01000089
PAOH 231108Z AUTO 09007KT 7SM -RA SCT013 OVC019 10/09 A2951 RMK AO2 P0001
PAOH 230956Z AUTO 08008KT 5SM -RA BR BKN008 BKN013 OVC021 10/09 A2952 RMK AO2 SLP997 P0007 T01000094
PAOH 230940Z AUTO 09008G15KT 6SM RA BR BKN008 BKN017 OVC021 10/09 A2952 RMK AO2 CIG 007V014 P0006
PAOH 230925Z AUTO 08008KT 5SM RA BR SCT008 BKN012 OVC024 10/09 A2952 RMK AO2 P0003
PAOH 230907Z AUTO 09010KT 4SM RA BR SCT009 BKN014 OVC023 10/09 A2953 RMK AO2 P0001
PAOH 230856Z AUTO 08010KT 4SM -RA BR BKN009 BKN016 OVC025 10/09 A2953 RMK AO2 CIG 007V013 SLP999 P0004 60020 T01000089 56012
PAOH 230848Z AUTO 09009KT 4SM RA BR SCT009 BKN014 OVC022 10/09 A2953 RMK AO2 P0004
PAOH 230824Z AUTO 09009KT 4SM -RA BR SCT009 SCT013 OVC022 10/09 A2953 RMK AO2 P0002
PAOH 230739Z AUTO 07011KT 10SM RA BKN009 OVC026 10/09 A2953 RMK AO2 CIG 007V012 P0006
PAOH 230712Z AUTO 08008KT 10SM RA BKN026 OVC035 10/09 A2954 RMK AO2 P0002
PAOH 230703Z AUTO 08010KT 10SM RA SCT026 OVC035 10/09 A2954 RMK AO2 P0001
PAOH 230556Z AUTO 09007G14KT 10SM -RA BKN026 OVC035 10/09 A2956 RMK AO2 SLP011 P0004 60035 T01000089 10106 20100 56021
PAOH 230536Z AUTO 08008KT 9SM -RA BKN026 OVC035 10/09 A2957 RMK AO2 P0003
PAOH 230447Z AUTO 08008G15KT 10SM -RA SCT026 OVC036 10/09 A2958 RMK AO2 P0004
PAOH 230410Z AUTO 08010KT 9SM RA BKN028 OVC034 10/09 A2959 RMK AO2 P0002